createdAt,value
2023-01-03T00:01:49.024Z,2.69
2023-01-03T00:04:17.153Z,2.58
2023-01-03T00:06:49.881Z,2.55
2023-01-03T00:09:24.397Z,2.53
2023-01-03T00:12:12.535Z,2.43
2023-01-03T00:14:43.131Z,2.56
2023-01-03T00:17:11.796Z,2.50
2023-01-03T00:19:44.252Z,2.47
2023-01-03T00:22:13.196Z,2.50
2023-01-03T00:24:41.280Z,2.26
2023-01-03T00:27:08.345Z,2.36
2023-01-03T00:29:35.656Z,2.29
2023-01-03T00:32:03.207Z,2.19
2023-01-03T00:34:30.796Z,2.13
2023-01-03T00:36:57.975Z,2.05
2023-01-03T00:39:25.429Z,2.17
2023-01-03T00:41:52.413Z,2.11
2023-01-03T00:44:19.677Z,2.12
2023-01-03T00:46:46.677Z,2.05
2023-01-03T00:49:14.010Z,2.16
2023-01-03T00:51:42.148Z,2.07
2023-01-03T00:54:15.207Z,2.22
2023-01-03T00:56:44.791Z,2.14
2023-01-03T00:59:13.847Z,2.07
2023-01-03T01:01:47.493Z,1.50
2023-01-03T01:04:34.102Z,2.05
2023-01-03T01:07:04.777Z,2.02
2023-01-03T01:09:37.844Z,1.97
2023-01-03T01:12:07.456Z,2.04
2023-01-03T01:14:35.413Z,2.08
2023-01-03T01:17:06.266Z,1.98
2023-01-03T01:19:39.965Z,1.81
2023-01-03T01:22:08.037Z,2.02
2023-01-03T01:24:40.891Z,1.98
2023-01-03T01:27:08.144Z,1.96
2023-01-03T01:29:36.053Z,1.82
2023-01-03T01:32:31.071Z,1.83
2023-01-03T01:35:08.662Z,1.76
2023-01-03T01:37:36.004Z,1.76
2023-01-03T01:40:05.908Z,1.63
2023-01-03T01:42:56.346Z,1.62
2023-01-03T01:45:29.893Z,1.83
2023-01-03T01:48:10.502Z,1.91
2023-01-03T01:50:52.147Z,1.90
2023-01-03T01:53:27.735Z,1.88
2023-01-03T01:56:20.894Z,1.82
2023-01-03T01:58:50.591Z,1.73
2023-01-03T02:01:19.679Z,1.77
2023-01-03T02:03:55.506Z,1.76
2023-01-03T02:06:24.632Z,1.18
2023-01-03T02:08:51.669Z,1.65
2023-01-03T02:11:37.427Z,1.69
2023-01-03T02:14:22.614Z,1.68
2023-01-03T02:17:00.393Z,1.67
2023-01-03T02:19:30.320Z,1.66
2023-01-03T02:22:12.949Z,1.60
2023-01-03T02:25:01.236Z,1.56
2023-01-03T02:27:40.313Z,1.48
2023-01-03T02:30:43.350Z,1.48
2023-01-03T02:33:35.188Z,1.42
2023-01-03T02:36:21.144Z,1.41
2023-01-03T02:38:54.654Z,1.43
2023-01-03T02:41:40.330Z,1.39
2023-01-03T02:44:28.987Z,1.41
2023-01-03T02:47:08.699Z,1.44
2023-01-03T02:49:41.887Z,1.38
2023-01-03T02:52:13.888Z,1.36
2023-01-03T02:54:46.379Z,1.28
2023-01-03T02:57:18.473Z,1.28
2023-01-03T02:59:54.753Z,1.28
2023-01-03T03:02:26.649Z,1.26
2023-01-03T03:04:57.082Z,1.27
2023-01-03T03:07:28.699Z,1.36
2023-01-03T03:10:17.250Z,1.35
2023-01-03T03:13:05.887Z,1.35
2023-01-03T03:15:49.112Z,1.30
2023-01-03T03:18:22.278Z,1.24
2023-01-03T03:21:07.629Z,1.33
2023-01-03T03:23:57.991Z,1.31
2023-01-03T03:26:31.683Z,0.75
2023-01-03T03:29:10.861Z,1.35
2023-01-03T03:31:58.334Z,1.41
2023-01-03T03:34:30.107Z,1.34
2023-01-03T03:37:01.100Z,1.36
2023-01-03T03:39:49.742Z,1.33
2023-01-03T03:42:35.624Z,1.36
2023-01-03T03:45:23.621Z,1.25
2023-01-03T03:48:06.822Z,1.34
2023-01-03T03:50:43.388Z,0.91
2023-01-03T03:53:11.950Z,1.29
2023-01-03T03:56:03.169Z,1.27
2023-01-03T03:58:32.353Z,1.22
2023-01-03T04:01:01.145Z,1.23
2023-01-03T04:03:30.760Z,1.23
2023-01-03T04:06:02.008Z,1.24
2023-01-03T04:08:32.717Z,1.24
2023-01-03T04:11:08.752Z,1.18
2023-01-03T04:13:38.047Z,1.16
2023-01-03T04:16:06.228Z,1.04
2023-01-03T04:18:33.787Z,1.05
2023-01-03T04:21:00.996Z,0.90
2023-01-03T04:23:27.973Z,1.06
2023-01-03T04:25:56.676Z,1.05
2023-01-03T04:28:23.860Z,1.05
2023-01-03T04:30:50.900Z,0.99
2023-01-03T04:33:18.687Z,1.05
2023-01-03T04:35:46.431Z,1.05
2023-01-03T04:38:13.550Z,1.12
2023-01-03T04:40:44.457Z,1.09
2023-01-03T04:43:29.996Z,1.06
2023-01-03T04:45:57.486Z,1.02
2023-01-03T04:48:24.393Z,1.22
2023-01-03T04:50:56.555Z,1.17
2023-01-03T04:53:25.364Z,1.18
2023-01-03T04:55:53.911Z,1.22
2023-01-03T04:58:21.043Z,1.33
2023-01-03T05:00:48.192Z,1.31
2023-01-03T05:03:16.944Z,1.22
2023-01-03T05:05:45.413Z,1.07
2023-01-03T05:08:13.565Z,1.05
2023-01-03T05:10:41.922Z,1.02
2023-01-03T05:13:09.314Z,1.14
2023-01-03T05:15:38.626Z,1.06
2023-01-03T05:18:30.589Z,1.14
2023-01-03T05:21:16.114Z,1.06
2023-01-03T05:24:01.688Z,0.97
2023-01-03T05:26:28.811Z,1.04
2023-01-03T05:28:56.330Z,0.98
2023-01-03T05:31:23.502Z,1.12
2023-01-03T05:33:50.619Z,1.11
2023-01-03T05:36:17.908Z,1.08
2023-01-03T05:38:44.978Z,0.98
2023-01-03T05:41:13.305Z,1.04
2023-01-03T05:43:40.620Z,0.98
2023-01-03T05:46:08.007Z,1.01
2023-01-03T05:48:35.298Z,0.97
2023-01-03T05:51:02.170Z,0.95
2023-01-03T05:53:29.525Z,0.89
2023-01-03T05:55:56.520Z,0.93
2023-01-03T05:58:23.692Z,0.90
2023-01-03T06:00:50.746Z,0.84
2023-01-03T06:03:17.970Z,1.01
2023-01-03T06:05:50.150Z,1.02
2023-01-03T06:08:18.000Z,0.98
2023-01-03T06:10:45.176Z,0.98
2023-01-03T06:13:12.640Z,1.02
2023-01-03T06:15:40.050Z,0.99
2023-01-03T06:18:07.319Z,0.99
2023-01-03T06:20:35.472Z,1.09
2023-01-03T06:23:02.612Z,1.10
2023-01-03T06:25:29.837Z,1.16
2023-01-03T06:27:57.368Z,1.23
2023-01-03T06:30:24.986Z,1.21
2023-01-03T06:32:52.093Z,1.27
2023-01-03T06:35:19.447Z,1.33
2023-01-03T06:37:46.328Z,1.41
2023-01-03T06:40:13.595Z,1.45
2023-01-03T06:42:42.412Z,1.56
2023-01-03T06:45:29.813Z,1.63
2023-01-03T06:48:15.526Z,1.58
2023-01-03T06:51:02.056Z,1.57
2023-01-03T06:53:38.336Z,1.84
2023-01-03T06:56:06.523Z,1.88
2023-01-03T06:58:36.602Z,2.05
2023-01-03T07:01:05.055Z,2.15
2023-01-03T07:03:35.562Z,2.23
2023-01-03T07:06:03.697Z,2.30
2023-01-03T07:08:30.956Z,2.32
2023-01-03T07:10:58.090Z,2.47
2023-01-03T07:13:43.381Z,2.55
2023-01-03T07:16:15.593Z,2.75
2023-01-03T07:18:45.856Z,2.81
2023-01-03T07:21:15.537Z,2.81
2023-01-03T07:23:42.626Z,2.94
2023-01-03T07:26:09.841Z,2.96
2023-01-03T07:28:36.837Z,3.14
2023-01-03T07:31:08.099Z,3.25
2023-01-03T07:33:35.159Z,3.38
2023-01-03T07:36:11.793Z,3.44
2023-01-03T07:38:43.816Z,3.62
2023-01-03T07:41:12.471Z,3.81
2023-01-03T07:43:43.163Z,3.97
2023-01-03T07:46:11.770Z,4.19
2023-01-03T07:48:39.905Z,4.35
2023-01-03T07:51:08.967Z,4.42
2023-01-03T07:53:39.400Z,4.76
2023-01-03T07:56:13.462Z,4.43
2023-01-03T07:58:42.696Z,5.08
2023-01-03T08:01:18.996Z,5.18
2023-01-03T08:03:46.716Z,5.27
2023-01-03T08:06:19.492Z,5.44
2023-01-03T08:09:06.975Z,5.48
2023-01-03T08:11:53.020Z,5.83
2023-01-03T08:14:25.352Z,5.97
2023-01-03T08:16:53.518Z,6.09
2023-01-03T08:19:20.796Z,6.25
2023-01-03T08:21:49.022Z,6.39
2023-01-03T08:24:16.111Z,6.55
2023-01-03T08:26:43.415Z,6.62
2023-01-03T08:29:10.978Z,6.77
2023-01-03T08:31:44.697Z,6.99
2023-01-03T08:34:19.560Z,7.18
2023-01-03T08:36:52.242Z,7.27
2023-01-03T08:39:25.712Z,7.32
2023-01-03T08:42:02.645Z,7.63
2023-01-03T08:44:29.903Z,7.74
2023-01-03T08:46:59.530Z,7.87
2023-01-03T08:49:30.096Z,8.02
2023-01-03T08:51:57.197Z,8.18
2023-01-03T08:54:24.306Z,8.34
2023-01-03T08:56:51.303Z,8.53
2023-01-03T08:59:18.649Z,8.68
2023-01-03T09:01:45.937Z,8.86
2023-01-03T09:04:13.303Z,9.02
2023-01-03T09:06:40.815Z,9.18
2023-01-03T09:09:08.860Z,9.29
2023-01-03T09:11:36.053Z,9.47
2023-01-03T09:14:05.517Z,9.62
2023-01-03T09:16:37.289Z,9.66
2023-01-03T09:19:15.242Z,9.96
2023-01-03T09:21:42.650Z,10.10
2023-01-03T09:24:10.039Z,10.30
2023-01-03T09:26:40.669Z,10.51
2023-01-03T09:29:07.686Z,10.67
2023-01-03T09:31:35.681Z,10.86
2023-01-03T09:34:05.851Z,11.02
2023-01-03T09:36:35.027Z,11.18
2023-01-03T09:39:02.038Z,11.33
2023-01-03T09:41:29.427Z,11.49
2023-01-03T09:44:02.681Z,11.64
2023-01-03T09:46:44.692Z,11.83
2023-01-03T09:49:15.644Z,12.02
2023-01-03T09:52:04.832Z,12.24
2023-01-03T09:54:59.381Z,12.46
2023-01-03T09:57:54.928Z,12.67
2023-01-03T10:00:59.376Z,12.89
2023-01-03T10:04:05.584Z,13.03
2023-01-03T10:06:51.341Z,13.23
2023-01-03T10:09:21.310Z,13.60
2023-01-03T10:12:09.532Z,13.79
2023-01-03T10:15:00.173Z,13.91
2023-01-03T10:17:38.924Z,14.14
2023-01-03T10:20:27.988Z,14.27
2023-01-03T10:23:01.171Z,14.48
2023-01-03T10:25:29.456Z,14.61
2023-01-03T10:28:06.581Z,14.59
2023-01-03T10:30:56.708Z,14.74
2023-01-03T10:33:47.439Z,14.79
2023-01-03T10:36:21.207Z,14.99
2023-01-03T10:38:52.864Z,15.13
2023-01-03T10:41:31.014Z,15.08
2023-01-03T10:44:04.216Z,15.20
2023-01-03T10:46:32.950Z,15.12
2023-01-03T10:49:28.371Z,15.15
2023-01-03T10:52:33.627Z,15.18
2023-01-03T10:55:21.878Z,15.28
2023-01-03T10:58:01.407Z,15.19
2023-01-03T11:00:38.112Z,15.14
2023-01-03T11:03:16.873Z,15.15
2023-01-03T11:05:48.136Z,15.12
2023-01-03T11:08:24.172Z,15.28
2023-01-03T11:10:53.325Z,15.40
2023-01-03T11:13:40.578Z,15.50
2023-01-03T11:16:17.864Z,15.62
2023-01-03T11:19:00.625Z,15.51
2023-01-03T11:21:45.119Z,15.50
2023-01-03T11:24:15.282Z,15.49
2023-01-03T11:26:51.222Z,15.56
2023-01-03T11:29:21.370Z,15.57
2023-01-03T11:31:55.674Z,15.57
2023-01-03T11:35:20.746Z,15.47
2023-01-03T11:37:55.873Z,15.71
2023-01-03T11:40:29.358Z,15.65
2023-01-03T11:43:16.739Z,15.79
2023-01-03T11:46:13.304Z,15.74
2023-01-03T11:49:19.444Z,15.81
2023-01-03T11:51:59.158Z,15.94
2023-01-03T11:54:40.635Z,16.03
2023-01-03T11:57:36.821Z,15.94
2023-01-03T12:00:17.684Z,16.10
2023-01-03T12:03:09.402Z,16.29
2023-01-03T12:05:46.350Z,16.44
2023-01-03T12:08:38.585Z,16.35
2023-01-03T12:11:42.561Z,16.31
2023-01-03T12:14:27.523Z,16.13
2023-01-03T12:17:07.855Z,16.03
2023-01-03T12:19:53.710Z,16.08
2023-01-03T12:22:24.017Z,16.13
2023-01-03T12:25:18.388Z,16.33
2023-01-03T12:28:06.394Z,16.56
2023-01-03T12:30:54.389Z,16.77
2023-01-03T12:33:49.493Z,16.74
2023-01-03T12:36:47.575Z,16.80
2023-01-03T12:39:36.773Z,17.49
2023-01-03T12:42:44.091Z,17.62
2023-01-03T12:45:11.350Z,17.58
2023-01-03T12:47:54.397Z,17.64
2023-01-03T12:50:33.711Z,18.33
2023-01-03T12:53:31.326Z,20.62
2023-01-03T12:56:13.494Z,20.85
2023-01-03T12:58:59.986Z,20.11
2023-01-03T13:01:37.001Z,20.34
2023-01-03T13:04:32.851Z,20.37
2023-01-03T13:07:11.347Z,19.48
2023-01-03T13:09:46.472Z,18.68
2023-01-03T13:12:38.344Z,18.12
2023-01-03T13:15:36.175Z,17.79
2023-01-03T13:18:25.735Z,17.33
2023-01-03T13:21:02.563Z,16.99
2023-01-03T13:24:00.457Z,16.47
2023-01-03T13:26:32.534Z,16.20
2023-01-03T13:29:36.106Z,15.93
2023-01-03T13:32:25.543Z,15.73
2023-01-03T13:35:01.458Z,15.63
2023-01-03T13:37:53.797Z,15.45
2023-01-03T13:40:59.598Z,15.16
2023-01-03T13:43:21.824Z,15.22
2023-01-03T13:45:55.628Z,15.23
2023-01-03T13:48:30.819Z,15.18
2023-01-03T13:51:16.409Z,15.03
2023-01-03T13:54:00.769Z,14.90
2023-01-03T13:56:44.444Z,14.74
2023-01-03T13:59:14.945Z,14.82
2023-01-03T14:01:43.322Z,14.76
2023-01-03T14:05:06.789Z,14.67
2023-01-03T14:07:43.126Z,14.61
2023-01-03T14:10:44.113Z,14.54
2023-01-03T14:13:39.960Z,14.44
2023-01-03T14:16:23.986Z,14.40
2023-01-03T14:19:32.610Z,14.27
2023-01-03T14:22:34.850Z,14.15
2023-01-03T14:25:02.211Z,13.99
2023-01-03T14:27:37.688Z,13.95
2023-01-03T14:30:22.397Z,13.70
2023-01-03T14:32:50.150Z,13.64
2023-01-03T14:35:40.690Z,13.59
2023-01-03T14:38:35.761Z,13.45
2023-01-03T14:41:06.083Z,13.31
2023-01-03T14:43:39.044Z,13.13
2023-01-03T14:46:11.437Z,13.07
2023-01-03T14:48:46.404Z,13.04
2023-01-03T14:51:13.579Z,12.92
2023-01-03T14:53:42.003Z,12.91
2023-01-03T14:56:13.690Z,12.81
2023-01-03T14:58:47.543Z,12.67
2023-01-03T15:01:23.271Z,12.63
2023-01-03T15:03:52.570Z,12.54
2023-01-03T15:06:30.482Z,12.50
2023-01-03T15:09:12.526Z,12.44
2023-01-03T15:11:57.461Z,12.21
2023-01-03T15:14:29.087Z,12.22
2023-01-03T15:17:25.868Z,12.09
2023-01-03T15:19:57.380Z,12.02
2023-01-03T15:22:41.636Z,11.89
2023-01-03T15:25:34.373Z,11.84
2023-01-03T15:28:25.298Z,11.72
2023-01-03T15:31:03.264Z,11.62
2023-01-03T15:33:34.937Z,11.55
2023-01-03T15:36:19.138Z,11.43
2023-01-03T15:38:49.076Z,11.42
2023-01-03T15:42:12.363Z,11.25
2023-01-03T15:44:39.631Z,11.25
2023-01-03T15:47:09.242Z,11.17
2023-01-03T15:49:45.324Z,11.24
2023-01-03T15:52:14.644Z,11.22
2023-01-03T15:54:45.767Z,11.14
2023-01-03T15:57:28.723Z,11.02
2023-01-03T16:00:00.340Z,10.96
2023-01-03T16:02:30.138Z,10.97
2023-01-03T16:04:57.924Z,10.80
2023-01-03T16:07:26.385Z,10.84
2023-01-03T16:09:53.713Z,10.74
2023-01-03T16:12:31.096Z,10.70
2023-01-03T16:14:58.812Z,10.66
2023-01-03T16:17:30.919Z,10.63
2023-01-03T16:20:00.498Z,10.63
2023-01-03T16:22:35.498Z,10.63
2023-01-03T16:25:05.473Z,10.55
2023-01-03T16:27:41.209Z,10.53
2023-01-03T16:30:21.534Z,10.60
2023-01-03T16:32:50.336Z,10.67
2023-01-03T16:35:19.085Z,10.72
2023-01-03T16:37:47.512Z,10.81
2023-01-03T16:40:25.679Z,10.82
2023-01-03T16:42:52.793Z,10.84
2023-01-03T16:45:20.471Z,10.85
2023-01-03T16:47:49.142Z,10.90
2023-01-03T16:50:20.049Z,10.86
2023-01-03T16:52:52.679Z,10.85
2023-01-03T16:55:19.795Z,10.93
2023-01-03T16:57:53.910Z,10.94
2023-01-03T17:01:16.249Z,10.84
2023-01-03T17:03:56.935Z,11.00
2023-01-03T17:06:38.023Z,10.96
2023-01-03T17:09:33.381Z,11.05
2023-01-03T17:12:02.874Z,10.93
2023-01-03T17:14:35.052Z,10.92
2023-01-03T17:17:02.431Z,11.04
2023-01-03T17:22:20.739Z,10.92
2023-01-03T17:24:49.018Z,10.86
2023-01-03T17:27:21.849Z,10.64
2023-01-03T17:30:04.537Z,10.73
2023-01-03T17:32:57.023Z,10.61
2023-01-03T17:35:27.495Z,10.59
2023-01-03T17:38:24.520Z,10.61
2023-01-03T17:40:49.043Z,10.58
2023-01-03T17:43:23.334Z,10.33
2023-01-03T17:46:20.575Z,10.48
2023-01-03T17:49:06.362Z,10.37
2023-01-03T17:51:33.629Z,10.31
2023-01-03T17:54:01.828Z,10.28
2023-01-03T17:56:33.449Z,10.27
2023-01-03T17:59:00.649Z,10.22
2023-01-03T18:01:27.877Z,10.14
2023-01-03T18:03:55.731Z,10.18
2023-01-03T18:06:25.013Z,10.08
2023-01-03T18:08:53.020Z,9.99
2023-01-03T18:11:23.212Z,9.92
2023-01-03T18:13:50.285Z,9.73
2023-01-03T18:16:22.717Z,9.61
2023-01-03T18:18:50.130Z,9.53
2023-01-03T18:21:23.623Z,9.41
2023-01-03T18:24:03.402Z,9.30
2023-01-03T18:26:36.983Z,9.20
2023-01-03T18:29:06.345Z,9.21
2023-01-03T18:31:34.728Z,9.11
2023-01-03T18:34:04.774Z,9.06
2023-01-03T18:36:39.560Z,8.95
2023-01-03T18:39:12.589Z,8.98
2023-01-03T18:41:40.567Z,8.99
2023-01-03T18:44:21.155Z,8.95
2023-01-03T18:46:48.442Z,8.78
2023-01-03T18:49:15.982Z,8.88
2023-01-03T18:51:43.143Z,8.85
2023-01-03T18:54:16.531Z,8.81
2023-01-03T18:56:44.316Z,8.77
2023-01-03T18:59:21.501Z,8.75
2023-01-03T19:01:49.049Z,8.68
2023-01-03T19:04:16.580Z,8.70
2023-01-03T19:06:45.940Z,8.62
2023-01-03T19:09:21.619Z,8.53
2023-01-03T19:11:49.429Z,8.44
2023-01-03T19:14:16.565Z,8.30
2023-01-03T19:16:43.924Z,8.32
2023-01-03T19:19:11.657Z,8.38
2023-01-03T19:21:45.436Z,8.28
2023-01-03T19:24:58.470Z,8.24
2023-01-03T19:27:42.228Z,7.95
2023-01-03T19:30:18.216Z,8.01
2023-01-03T19:32:51.479Z,7.71
2023-01-03T19:35:23.450Z,7.87
2023-01-03T19:37:51.411Z,7.28
2023-01-03T19:40:21.848Z,7.70
2023-01-03T19:42:56.998Z,7.59
2023-01-03T19:45:37.261Z,7.58
2023-01-03T19:48:22.269Z,7.51
2023-01-03T19:50:51.504Z,7.44
2023-01-03T19:53:19.074Z,7.31
2023-01-03T19:55:47.733Z,7.20
2023-01-03T19:58:24.145Z,7.23
2023-01-03T20:00:52.184Z,7.14
2023-01-03T20:03:29.450Z,7.10
2023-01-03T20:05:58.186Z,7.17
2023-01-03T20:08:25.246Z,7.08
2023-01-03T20:10:54.312Z,7.06
2023-01-03T20:13:24.069Z,6.97
2023-01-03T20:15:57.586Z,6.93
2023-01-03T20:18:41.592Z,6.98
2023-01-03T20:21:23.337Z,6.80
2023-01-03T20:24:05.340Z,6.79
2023-01-03T20:26:34.934Z,6.84
2023-01-03T20:29:02.000Z,6.86
2023-01-03T20:31:29.087Z,6.85
2023-01-03T20:37:42.902Z,6.82
2023-01-03T20:40:22.235Z,6.78
2023-01-03T20:42:49.471Z,6.85
2023-01-03T20:45:17.489Z,6.80
2023-01-03T20:47:46.407Z,6.73
2023-01-03T20:50:25.726Z,6.62
2023-01-03T20:52:53.947Z,6.63
2023-01-03T20:55:25.238Z,6.57
2023-01-03T20:57:52.170Z,6.55
2023-01-03T21:00:31.562Z,6.58
2023-01-03T21:02:59.141Z,6.57
2023-01-03T21:05:26.550Z,6.58
2023-01-03T21:08:12.508Z,6.43
2023-01-03T21:10:43.013Z,6.55
2023-01-03T21:13:16.259Z,6.62
2023-01-03T21:15:43.177Z,6.59
2023-01-03T21:18:11.200Z,6.49
2023-01-03T21:20:38.197Z,6.35
2023-01-03T21:23:05.236Z,6.34
2023-01-03T21:25:35.552Z,6.35
2023-01-03T21:28:03.319Z,6.29
2023-01-03T21:30:31.821Z,6.28
2023-01-03T21:32:59.686Z,6.19
2023-01-03T21:35:26.881Z,6.35
2023-01-03T21:37:54.929Z,6.37
2023-01-03T21:40:27.686Z,6.41
2023-01-03T21:43:04.468Z,6.44
2023-01-03T21:45:41.297Z,6.43
2023-01-03T21:48:14.911Z,6.17
2023-01-03T21:50:47.089Z,6.31
2023-01-03T21:53:23.147Z,6.18
2023-01-03T21:55:50.690Z,6.18
2023-01-03T21:58:24.366Z,6.18
2023-01-03T22:00:51.307Z,6.10
2023-01-03T22:03:37.344Z,6.07
2023-01-03T22:06:09.858Z,6.21
2023-01-03T22:08:37.772Z,6.13
2023-01-03T22:11:04.955Z,6.21
2023-01-03T22:13:32.815Z,6.18
2023-01-03T22:16:05.141Z,6.20
2023-01-03T22:18:32.372Z,6.12
2023-01-03T22:21:07.648Z,5.99
2023-01-03T22:23:35.825Z,6.13
2023-01-03T22:26:04.538Z,6.03
2023-01-03T22:28:41.115Z,6.02
2023-01-03T22:31:18.427Z,5.93
2023-01-03T22:33:49.935Z,5.48
2023-01-03T22:36:17.983Z,5.90
2023-01-03T22:38:44.967Z,5.83
2023-01-03T22:41:15.083Z,5.68
2023-01-03T22:43:58.363Z,5.63
2023-01-03T22:46:28.280Z,5.61
2023-01-03T22:48:55.500Z,5.55
2023-01-03T22:51:22.396Z,5.54
2023-01-03T22:53:49.556Z,5.58
2023-01-03T22:56:30.728Z,5.52
2023-01-03T22:58:58.484Z,5.45
2023-01-03T23:01:28.507Z,5.36
2023-01-03T23:04:01.686Z,5.27
2023-01-03T23:06:30.572Z,5.14
2023-01-03T23:12:46.663Z,5.13
2023-01-03T23:15:14.301Z,5.06
2023-01-03T23:17:59.137Z,5.10
2023-01-03T23:20:54.505Z,4.81
2023-01-03T23:23:23.665Z,4.73
2023-01-03T23:26:07.718Z,5.00
2023-01-03T23:28:36.130Z,4.59
2023-01-03T23:31:16.031Z,4.77
2023-01-03T23:33:43.062Z,4.76
2023-01-03T23:36:15.983Z,4.72
2023-01-03T23:39:11.716Z,4.69
2023-01-03T23:41:38.808Z,4.60
2023-01-03T23:44:10.372Z,4.72
2023-01-03T23:46:37.549Z,4.76
2023-01-03T23:49:04.733Z,4.76
2023-01-03T23:51:38.002Z,4.67
2023-01-03T23:54:16.397Z,4.69
2023-01-03T23:56:43.431Z,4.58
2023-01-03T23:59:10.397Z,4.63
